Mountainhome, Pennsylvania
Current Conditions -  °F | °C
As of 3:53 PM on Sunday 21 Dec 2014 (Local Time) from KMPO Reporting Station
Overcast Overcast  
Wind Chill: 18°   Ceiling: 1600
Heat Index: 26°   Visibility: 10mi
Dew Point: 19°   Wind: 7mph
Humidity: 75%   Direction: 30°NNE
Pressure: 30.21"   Gusts: NA
Location:  41.18°N, 75.26°W
Report Text: KMPO 212053Z AUTO 03006KT 10SM OVC016 M03/M07 A3021 RMK AO2 SLP257 T10331072 56001
Loading
Personal Weather Stations






























Interactive Weather Map New forecast layout! Learn more

10-Day Weather Forecast

Advertisements
Track Severe Weather on mobile